sensor_id;sensor_type;location;lat;lon;timestamp;temperature;humidity
9768;DHT22;4923;52.520;13.494;2023-09-08T00:00:15;17.70;99.90
9768;DHT22;4923;52.520;13.494;2023-09-08T00:03:02;17.70;99.90
9768;DHT22;4923;52.520;13.494;2023-09-08T00:05:49;17.70;99.90
9768;DHT22;4923;52.520;13.494;2023-09-08T00:08:36;17.60;99.90
9768;DHT22;4923;52.520;13.494;2023-09-08T00:11:22;17.70;99.90
9768;DHT22;4923;52.520;13.494;2023-09-08T00:14:09;17.60;99.90
9768;DHT22;4923;52.520;13.494;2023-09-08T00:16:57;17.60;99.90
9768;DHT22;4923;52.520;13.494;2023-09-08T00:19:44;17.50;99.90
9768;DHT22;4923;52.520;13.494;2023-09-08T00:22:31;17.50;99.90
9768;DHT22;4923;52.520;13.494;2023-09-08T00:25:18;17.40;99.90
9768;DHT22;4923;52.520;13.494;2023-09-08T00:28:05;17.40;99.90
9768;DHT22;4923;52.520;13.494;2023-09-08T00:30:52;17.30;99.90
9768;DHT22;4923;52.520;13.494;2023-09-08T00:33:40;17.30;99.90
9768;DHT22;4923;52.520;13.494;2023-09-08T00:36:29;17.30;99.90
9768;DHT22;4923;52.520;13.494;2023-09-08T00:39:16;17.30;99.90
9768;DHT22;4923;52.520;13.494;2023-09-08T00:42:03;17.30;99.90
9768;DHT22;4923;52.520;13.494;2023-09-08T00:44:50;17.20;99.90
9768;DHT22;4923;52.520;13.494;2023-09-08T00:47:37;17.20;99.90
9768;DHT22;4923;52.520;13.494;2023-09-08T00:50:25;17.30;99.90
9768;DHT22;4923;52.520;13.494;2023-09-08T00:53:12;17.30;99.90
9768;DHT22;4923;52.520;13.494;2023-09-08T00:56:00;17.30;99.90
9768;DHT22;4923;52.520;13.494;2023-09-08T00:58:47;17.20;99.90
9768;DHT22;4923;52.520;13.494;2023-09-08T01:01:34;17.20;99.90
9768;DHT22;4923;52.520;13.494;2023-09-08T01:04:21;17.10;99.90
9768;DHT22;4923;52.520;13.494;2023-09-08T01:07:09;17.10;99.90
9768;DHT22;4923;52.520;13.494;2023-09-08T01:09:57;17.10;99.90
9768;DHT22;4923;52.520;13.494;2023-09-08T01:12:49;17.10;99.90
9768;DHT22;4923;52.520;13.494;2023-09-08T01:15:36;17.00;99.90
9768;DHT22;4923;52.520;13.494;2023-09-08T01:18:23;17.00;99.90
9768;DHT22;4923;52.520;13.494;2023-09-08T01:21:35;17.00;99.90
9768;DHT22;4923;52.520;13.494;2023-09-08T01:24:44;17.00;99.90
9768;DHT22;4923;52.520;13.494;2023-09-08T01:27:37;16.90;99.90
9768;DHT22;4923;52.520;13.494;2023-09-08T01:30:26;16.90;99.90
9768;DHT22;4923;52.520;13.494;2023-09-08T01:33:15;16.80;99.90
9768;DHT22;4923;52.520;13.494;2023-09-08T01:36:02;16.80;99.90
9768;DHT22;4923;52.520;13.494;2023-09-08T01:38:49;16.70;99.90
9768;DHT22;4923;52.520;13.494;2023-09-08T01:41:35;16.70;99.90
9768;DHT22;4923;52.520;13.494;2023-09-08T01:44:24;16.70;99.90
9768;DHT22;4923;52.520;13.494;2023-09-08T01:47:11;16.60;99.90
9768;DHT22;4923;52.520;13.494;2023-09-08T01:49:57;16.60;99.90
9768;DHT22;4923;52.520;13.494;2023-09-08T01:52:44;16.60;99.90
9768;DHT22;4923;52.520;13.494;2023-09-08T01:55:31;16.60;99.90
9768;DHT22;4923;52.520;13.494;2023-09-08T01:58:18;16.50;99.90
9768;DHT22;4923;52.520;13.494;2023-09-08T02:01:06;16.50;99.90
9768;DHT22;4923;52.520;13.494;2023-09-08T02:03:53;16.50;99.90
9768;DHT22;4923;52.520;13.494;2023-09-08T02:06:40;16.50;99.90
9768;DHT22;4923;52.520;13.494;2023-09-08T02:09:32;16.50;99.90
9768;DHT22;4923;52.520;13.494;2023-09-08T02:12:18;16.40;99.90
9768;DHT22;4923;52.520;13.494;2023-09-08T02:15:06;16.40;99.90
9768;DHT22;4923;52.520;13.494;2023-09-08T02:17:56;16.30;99.90
9768;DHT22;4923;52.520;13.494;2023-09-08T02:20:43;16.30;99.90
9768;DHT22;4923;52.520;13.494;2023-09-08T02:23:30;16.40;99.90
9768;DHT22;4923;52.520;13.494;2023-09-08T02:26:17;16.30;99.90
9768;DHT22;4923;52.520;13.494;2023-09-08T02:29:03;16.30;99.90
9768;DHT22;4923;52.520;13.494;2023-09-08T02:31:50;16.20;99.90
9768;DHT22;4923;52.520;13.494;2023-09-08T02:34:38;16.10;99.90
9768;DHT22;4923;52.520;13.494;2023-09-08T02:37:27;16.10;99.90
9768;DHT22;4923;52.520;13.494;2023-09-08T02:40:13;16.10;99.90
9768;DHT22;4923;52.520;13.494;2023-09-08T02:43:00;16.00;99.90
9768;DHT22;4923;52.520;13.494;2023-09-08T02:45:47;16.10;99.90
9768;DHT22;4923;52.520;13.494;2023-09-08T02:48:34;16.10;99.90
9768;DHT22;4923;52.520;13.494;2023-09-08T02:51:22;16.00;99.90
9768;DHT22;4923;52.520;13.494;2023-09-08T02:54:09;16.00;99.90
9768;DHT22;4923;52.520;13.494;2023-09-08T02:56:56;16.00;99.90
9768;DHT22;4923;52.520;13.494;2023-09-08T02:59:42;16.00;99.90
9768;DHT22;4923;52.520;13.494;2023-09-08T03:02:30;16.00;99.90
9768;DHT22;4923;52.520;13.494;2023-09-08T03:05:17;16.00;99.90
9768;DHT22;4923;52.520;13.494;2023-09-08T03:08:05;16.00;99.90
9768;DHT22;4923;52.520;13.494;2023-09-08T03:10:55;15.90;99.90
9768;DHT22;4923;52.520;13.494;2023-09-08T03:13:42;15.90;99.90
9768;DHT22;4923;52.520;13.494;2023-09-08T03:16:29;15.90;99.90
9768;DHT22;4923;52.520;13.494;2023-09-08T03:19:15;15.90;99.90
9768;DHT22;4923;52.520;13.494;2023-09-08T03:22:03;15.90;99.90
9768;DHT22;4923;52.520;13.494;2023-09-08T03:24:51;15.80;99.90
9768;DHT22;4923;52.520;13.494;2023-09-08T03:27:38;15.80;99.90
9768;DHT22;4923;52.520;13.494;2023-09-08T03:30:24;15.80;99.90
9768;DHT22;4923;52.520;13.494;2023-09-08T03:33:11;15.70;99.90
9768;DHT22;4923;52.520;13.494;2023-09-08T03:35:58;15.70;99.90
9768;DHT22;4923;52.520;13.494;2023-09-08T03:38:45;15.70;99.90
9768;DHT22;4923;52.520;13.494;2023-09-08T03:41:33;15.70;99.90
9768;DHT22;4923;52.520;13.494;2023-09-08T03:44:20;15.70;99.90
9768;DHT22;4923;52.520;13.494;2023-09-08T03:47:07;15.60;99.90
9768;DHT22;4923;52.520;13.494;2023-09-08T03:49:54;15.60;99.90
9768;DHT22;4923;52.520;13.494;2023-09-08T03:52:41;15.50;99.90
9768;DHT22;4923;52.520;13.494;2023-09-08T03:55:27;15.60;99.90
9768;DHT22;4923;52.520;13.494;2023-09-08T03:58:16;15.50;99.90
9768;DHT22;4923;52.520;13.494;2023-09-08T04:01:02;15.50;99.90
9768;DHT22;4923;52.520;13.494;2023-09-08T04:03:49;15.40;99.90
9768;DHT22;4923;52.520;13.494;2023-09-08T04:06:36;15.40;99.90
9768;DHT22;4923;52.520;13.494;2023-09-08T04:09:23;15.40;99.90
9768;DHT22;4923;52.520;13.494;2023-09-08T04:12:10;15.40;99.90
9768;DHT22;4923;52.520;13.494;2023-09-08T04:14:58;15.40;99.90
9768;DHT22;4923;52.520;13.494;2023-09-08T04:17:45;15.30;99.90
9768;DHT22;4923;52.520;13.494;2023-09-08T04:20:34;15.30;99.90
9768;DHT22;4923;52.520;13.494;2023-09-08T04:23:20;15.30;99.90
9768;DHT22;4923;52.520;13.494;2023-09-08T04:26:07;15.30;99.90
9768;DHT22;4923;52.520;13.494;2023-09-08T04:28:54;15.30;99.90
9768;DHT22;4923;52.520;13.494;2023-09-08T04:31:42;15.30;99.90
9768;DHT22;4923;52.520;13.494;2023-09-08T04:34:29;15.20;99.90
9768;DHT22;4923;52.520;13.494;2023-09-08T04:37:16;15.20;99.90
9768;DHT22;4923;52.520;13.494;2023-09-08T04:40:04;15.30;99.90
9768;DHT22;4923;52.520;13.494;2023-09-08T04:42:51;15.30;99.90
9768;DHT22;4923;52.520;13.494;2023-09-08T04:45:38;15.30;99.90
9768;DHT22;4923;52.520;13.494;2023-09-08T04:48:27;15.30;99.90
9768;DHT22;4923;52.520;13.494;2023-09-08T04:51:13;15.30;99.90
9768;DHT22;4923;52.520;13.494;2023-09-08T04:54:00;15.30;99.90
9768;DHT22;4923;52.520;13.494;2023-09-08T04:56:47;15.30;99.90
9768;DHT22;4923;52.520;13.494;2023-09-08T04:59:34;15.40;99.90
9768;DHT22;4923;52.520;13.494;2023-09-08T05:02:22;15.40;99.90
9768;DHT22;4923;52.520;13.494;2023-09-08T05:05:10;15.40;99.90
9768;DHT22;4923;52.520;13.494;2023-09-08T05:07:57;15.50;99.90
9768;DHT22;4923;52.520;13.494;2023-09-08T05:10:44;15.60;99.90
9768;DHT22;4923;52.520;13.494;2023-09-08T05:13:31;15.60;99.90
9768;DHT22;4923;52.520;13.494;2023-09-08T05:16:18;15.70;99.90
9768;DHT22;4923;52.520;13.494;2023-09-08T05:19:12;15.70;99.90
9768;DHT22;4923;52.520;13.494;2023-09-08T05:22:00;15.80;99.90
9768;DHT22;4923;52.520;13.494;2023-09-08T05:24:47;15.90;99.90
9768;DHT22;4923;52.520;13.494;2023-09-08T05:27:34;16.00;99.90
9768;DHT22;4923;52.520;13.494;2023-09-08T05:30:20;16.10;99.90
9768;DHT22;4923;52.520;13.494;2023-09-08T05:33:07;16.20;99.90
9768;DHT22;4923;52.520;13.494;2023-09-08T05:35:54;16.30;99.90
9768;DHT22;4923;52.520;13.494;2023-09-08T05:38:42;16.40;99.90
9768;DHT22;4923;52.520;13.494;2023-09-08T05:41:29;16.50;99.90
9768;DHT22;4923;52.520;13.494;2023-09-08T05:44:17;16.60;99.90
9768;DHT22;4923;52.520;13.494;2023-09-08T05:47:04;16.70;99.90
9768;DHT22;4923;52.520;13.494;2023-09-08T05:49:51;16.80;99.90
9768;DHT22;4923;52.520;13.494;2023-09-08T05:52:38;16.90;99.90
9768;DHT22;4923;52.520;13.494;2023-09-08T05:55:26;16.90;99.90
9768;DHT22;4923;52.520;13.494;2023-09-08T05:58:13;17.00;99.90
9768;DHT22;4923;52.520;13.494;2023-09-08T06:00:59;17.10;99.90
9768;DHT22;4923;52.520;13.494;2023-09-08T06:03:46;17.20;99.90
9768;DHT22;4923;52.520;13.494;2023-09-08T06:06:33;17.30;99.90
9768;DHT22;4923;52.520;13.494;2023-09-08T06:09:20;17.50;99.90
9768;DHT22;4923;52.520;13.494;2023-09-08T06:12:08;17.60;99.90
9768;DHT22;4923;52.520;13.494;2023-09-08T06:14:55;17.80;99.90
9768;DHT22;4923;52.520;13.494;2023-09-08T06:17:42;17.90;99.90
9768;DHT22;4923;52.520;13.494;2023-09-08T06:20:29;18.00;99.90
9768;DHT22;4923;52.520;13.494;2023-09-08T06:23:16;18.00;99.90
9768;DHT22;4923;52.520;13.494;2023-09-08T06:26:02;18.20;99.90
9768;DHT22;4923;52.520;13.494;2023-09-08T06:28:51;18.20;99.90
9768;DHT22;4923;52.520;13.494;2023-09-08T06:31:37;18.30;99.90
9768;DHT22;4923;52.520;13.494;2023-09-08T06:34:24;18.40;99.90
9768;DHT22;4923;52.520;13.494;2023-09-08T06:37:11;18.50;99.90
9768;DHT22;4923;52.520;13.494;2023-09-08T06:39:58;18.60;99.90
9768;DHT22;4923;52.520;13.494;2023-09-08T06:42:45;18.80;99.90
9768;DHT22;4923;52.520;13.494;2023-09-08T06:45:33;18.90;99.90
9768;DHT22;4923;52.520;13.494;2023-09-08T06:48:20;19.00;99.90
9768;DHT22;4923;52.520;13.494;2023-09-08T06:51:07;19.10;99.90
9768;DHT22;4923;52.520;13.494;2023-09-08T06:53:54;19.20;99.90
9768;DHT22;4923;52.520;13.494;2023-09-08T06:56:42;19.30;99.90
9768;DHT22;4923;52.520;13.494;2023-09-08T06:59:29;19.50;99.90
9768;DHT22;4923;52.520;13.494;2023-09-08T07:02:17;19.50;99.90
9768;DHT22;4923;52.520;13.494;2023-09-08T07:05:04;19.60;99.90
9768;DHT22;4923;52.520;13.494;2023-09-08T07:07:53;19.70;99.90
9768;DHT22;4923;52.520;13.494;2023-09-08T07:10:40;19.90;99.90
9768;DHT22;4923;52.520;13.494;2023-09-08T07:13:27;20.00;99.90
9768;DHT22;4923;52.520;13.494;2023-09-08T07:16:14;20.10;99.90
9768;DHT22;4923;52.520;13.494;2023-09-08T07:19:02;20.30;99.90
9768;DHT22;4923;52.520;13.494;2023-09-08T07:21:49;20.40;99.90
9768;DHT22;4923;52.520;13.494;2023-09-08T07:24:36;20.60;99.90
9768;DHT22;4923;52.520;13.494;2023-09-08T07:27:22;20.70;99.90
9768;DHT22;4923;52.520;13.494;2023-09-08T07:30:10;20.80;99.90
9768;DHT22;4923;52.520;13.494;2023-09-08T07:32:58;21.00;99.90
9768;DHT22;4923;52.520;13.494;2023-09-08T07:35:46;21.10;99.90
9768;DHT22;4923;52.520;13.494;2023-09-08T07:38:33;21.30;99.90
9768;DHT22;4923;52.520;13.494;2023-09-08T07:41:20;21.30;99.90
9768;DHT22;4923;52.520;13.494;2023-09-08T07:44:07;21.50;99.90
9768;DHT22;4923;52.520;13.494;2023-09-08T07:46:53;21.50;99.90
9768;DHT22;4923;52.520;13.494;2023-09-08T07:49:46;21.70;99.90
9768;DHT22;4923;52.520;13.494;2023-09-08T07:52:34;21.90;99.90
9768;DHT22;4923;52.520;13.494;2023-09-08T07:55:21;22.00;99.90
9768;DHT22;4923;52.520;13.494;2023-09-08T07:58:08;22.10;99.90
9768;DHT22;4923;52.520;13.494;2023-09-08T08:00:55;22.20;99.90
9768;DHT22;4923;52.520;13.494;2023-09-08T08:03:42;22.20;99.90
9768;DHT22;4923;52.520;13.494;2023-09-08T08:06:29;22.30;99.90
9768;DHT22;4923;52.520;13.494;2023-09-08T08:09:17;22.50;99.90
9768;DHT22;4923;52.520;13.494;2023-09-08T08:12:04;22.60;99.90
9768;DHT22;4923;52.520;13.494;2023-09-08T08:14:51;22.70;99.90
9768;DHT22;4923;52.520;13.494;2023-09-08T08:17:39;22.80;99.90
9768;DHT22;4923;52.520;13.494;2023-09-08T08:20:26;23.00;99.90
9768;DHT22;4923;52.520;13.494;2023-09-08T08:23:13;23.00;99.90
9768;DHT22;4923;52.520;13.494;2023-09-08T08:26:01;23.20;99.90
9768;DHT22;4923;52.520;13.494;2023-09-08T08:28:48;23.20;99.90
9768;DHT22;4923;52.520;13.494;2023-09-08T08:31:35;23.30;99.90
9768;DHT22;4923;52.520;13.494;2023-09-08T08:34:22;23.50;99.90
9768;DHT22;4923;52.520;13.494;2023-09-08T08:37:09;23.60;99.90
9768;DHT22;4923;52.520;13.494;2023-09-08T08:39:56;23.70;99.90
9768;DHT22;4923;52.520;13.494;2023-09-08T08:42:44;23.80;99.90
9768;DHT22;4923;52.520;13.494;2023-09-08T08:45:31;23.90;99.90
9768;DHT22;4923;52.520;13.494;2023-09-08T08:48:20;23.90;99.90
9768;DHT22;4923;52.520;13.494;2023-09-08T08:51:08;24.00;99.90
9768;DHT22;4923;52.520;13.494;2023-09-08T08:53:57;24.10;99.90
9768;DHT22;4923;52.520;13.494;2023-09-08T08:56:46;24.20;99.90
9768;DHT22;4923;52.520;13.494;2023-09-08T08:59:34;24.20;99.90
9768;DHT22;4923;52.520;13.494;2023-09-08T09:02:25;24.40;99.90
9768;DHT22;4923;52.520;13.494;2023-09-08T09:05:13;24.50;99.90
9768;DHT22;4923;52.520;13.494;2023-09-08T09:07:59;24.50;99.90
9768;DHT22;4923;52.520;13.494;2023-09-08T09:10:49;24.60;99.90
9768;DHT22;4923;52.520;13.494;2023-09-08T09:13:37;24.70;99.90
9768;DHT22;4923;52.520;13.494;2023-09-08T09:16:25;24.80;99.90
9768;DHT22;4923;52.520;13.494;2023-09-08T09:19:18;24.90;99.90
9768;DHT22;4923;52.520;13.494;2023-09-08T09:22:06;25.00;99.90
9768;DHT22;4923;52.520;13.494;2023-09-08T09:24:57;25.10;99.90
9768;DHT22;4923;52.520;13.494;2023-09-08T09:27:50;25.20;99.90
9768;DHT22;4923;52.520;13.494;2023-09-08T09:30:47;25.30;99.90
9768;DHT22;4923;52.520;13.494;2023-09-08T09:33:36;25.40;99.90
9768;DHT22;4923;52.520;13.494;2023-09-08T09:36:23;25.50;99.90
9768;DHT22;4923;52.520;13.494;2023-09-08T09:39:10;25.50;99.90
9768;DHT22;4923;52.520;13.494;2023-09-08T09:41:57;25.70;99.90
9768;DHT22;4923;52.520;13.494;2023-09-08T09:44:46;25.70;99.90
9768;DHT22;4923;52.520;13.494;2023-09-08T09:47:34;25.80;99.90
9768;DHT22;4923;52.520;13.494;2023-09-08T09:50:28;25.80;99.90
9768;DHT22;4923;52.520;13.494;2023-09-08T09:53:17;25.80;99.90
9768;DHT22;4923;52.520;13.494;2023-09-08T09:56:04;25.90;99.90
9768;DHT22;4923;52.520;13.494;2023-09-08T09:58:53;26.00;99.90
9768;DHT22;4923;52.520;13.494;2023-09-08T10:01:41;26.10;99.90
9768;DHT22;4923;52.520;13.494;2023-09-08T10:04:29;26.20;99.90
9768;DHT22;4923;52.520;13.494;2023-09-08T10:07:18;26.20;99.90
9768;DHT22;4923;52.520;13.494;2023-09-08T10:10:05;26.20;99.90
9768;DHT22;4923;52.520;13.494;2023-09-08T10:12:54;26.20;99.90
9768;DHT22;4923;52.520;13.494;2023-09-08T10:15:42;26.30;99.90
9768;DHT22;4923;52.520;13.494;2023-09-08T10:18:29;26.30;99.90
9768;DHT22;4923;52.520;13.494;2023-09-08T10:21:18;26.40;99.90
9768;DHT22;4923;52.520;13.494;2023-09-08T10:24:14;26.50;99.90
9768;DHT22;4923;52.520;13.494;2023-09-08T10:27:04;26.60;99.90
9768;DHT22;4923;52.520;13.494;2023-09-08T10:29:54;26.70;99.90
9768;DHT22;4923;52.520;13.494;2023-09-08T10:32:41;26.80;99.90
9768;DHT22;4923;52.520;13.494;2023-09-08T10:35:29;26.80;99.90
9768;DHT22;4923;52.520;13.494;2023-09-08T10:38:23;26.80;99.90
9768;DHT22;4923;52.520;13.494;2023-09-08T10:41:28;26.80;99.90
9768;DHT22;4923;52.520;13.494;2023-09-08T10:44:18;26.80;99.90
9768;DHT22;4923;52.520;13.494;2023-09-08T10:47:05;26.80;99.90
9768;DHT22;4923;52.520;13.494;2023-09-08T10:49:52;26.90;99.90
9768;DHT22;4923;52.520;13.494;2023-09-08T10:52:42;27.00;99.90
9768;DHT22;4923;52.520;13.494;2023-09-08T10:55:35;27.00;99.90
9768;DHT22;4923;52.520;13.494;2023-09-08T10:58:30;27.10;99.90
9768;DHT22;4923;52.520;13.494;2023-09-08T11:01:19;27.20;99.90
9768;DHT22;4923;52.520;13.494;2023-09-08T11:04:08;27.20;99.90
9768;DHT22;4923;52.520;13.494;2023-09-08T11:06:57;27.30;99.90
9768;DHT22;4923;52.520;13.494;2023-09-08T11:09:44;27.30;99.90
9768;DHT22;4923;52.520;13.494;2023-09-08T11:12:31;27.30;99.90
9768;DHT22;4923;52.520;13.494;2023-09-08T11:15:19;27.30;99.90
9768;DHT22;4923;52.520;13.494;2023-09-08T11:18:07;27.30;99.90
9768;DHT22;4923;52.520;13.494;2023-09-08T11:20:54;27.40;99.90
9768;DHT22;4923;52.520;13.494;2023-09-08T11:23:41;27.30;99.90
9768;DHT22;4923;52.520;13.494;2023-09-08T11:26:28;27.40;99.90
9768;DHT22;4923;52.520;13.494;2023-09-08T11:29:15;27.40;99.90
9768;DHT22;4923;52.520;13.494;2023-09-08T11:32:04;27.50;99.90
9768;DHT22;4923;52.520;13.494;2023-09-08T11:34:52;27.60;99.90
9768;DHT22;4923;52.520;13.494;2023-09-08T11:37:40;27.70;99.90
9768;DHT22;4923;52.520;13.494;2023-09-08T11:40:27;27.70;99.90
9768;DHT22;4923;52.520;13.494;2023-09-08T11:43:15;27.80;99.90
9768;DHT22;4923;52.520;13.494;2023-09-08T11:46:02;27.80;99.90
9768;DHT22;4923;52.520;13.494;2023-09-08T11:48:50;27.80;99.90
9768;DHT22;4923;52.520;13.494;2023-09-08T11:51:37;27.70;99.90
9768;DHT22;4923;52.520;13.494;2023-09-08T11:54:24;27.80;99.90
9768;DHT22;4923;52.520;13.494;2023-09-08T11:57:11;27.80;99.90
9768;DHT22;4923;52.520;13.494;2023-09-08T11:59:59;27.90;99.90
9768;DHT22;4923;52.520;13.494;2023-09-08T12:02:47;27.80;99.90
9768;DHT22;4923;52.520;13.494;2023-09-08T12:05:35;27.90;99.90
9768;DHT22;4923;52.520;13.494;2023-09-08T12:08:25;27.80;99.90
9768;DHT22;4923;52.520;13.494;2023-09-08T12:11:12;27.90;99.90
9768;DHT22;4923;52.520;13.494;2023-09-08T12:14:00;27.90;99.90
9768;DHT22;4923;52.520;13.494;2023-09-08T12:16:47;27.90;99.90
9768;DHT22;4923;52.520;13.494;2023-09-08T12:19:34;28.00;99.90
9768;DHT22;4923;52.520;13.494;2023-09-08T12:22:23;28.00;99.90
9768;DHT22;4923;52.520;13.494;2023-09-08T12:25:10;28.10;99.90
9768;DHT22;4923;52.520;13.494;2023-09-08T12:27:57;28.10;99.90
9768;DHT22;4923;52.520;13.494;2023-09-08T12:30:44;28.20;99.90
9768;DHT22;4923;52.520;13.494;2023-09-08T12:33:31;28.20;99.90
9768;DHT22;4923;52.520;13.494;2023-09-08T12:36:19;28.20;99.90
9768;DHT22;4923;52.520;13.494;2023-09-08T12:39:07;28.20;99.90
9768;DHT22;4923;52.520;13.494;2023-09-08T12:41:54;28.30;99.90
9768;DHT22;4923;52.520;13.494;2023-09-08T12:44:41;28.30;99.90
9768;DHT22;4923;52.520;13.494;2023-09-08T12:47:28;28.30;99.90
9768;DHT22;4923;52.520;13.494;2023-09-08T12:50:15;28.30;99.90
9768;DHT22;4923;52.520;13.494;2023-09-08T12:53:02;28.30;99.90
9768;DHT22;4923;52.520;13.494;2023-09-08T12:55:50;28.40;99.90
9768;DHT22;4923;52.520;13.494;2023-09-08T12:58:37;28.40;99.90
9768;DHT22;4923;52.520;13.494;2023-09-08T13:01:23;28.50;99.90
9768;DHT22;4923;52.520;13.494;2023-09-08T13:04:10;28.50;99.90
9768;DHT22;4923;52.520;13.494;2023-09-08T13:06:57;28.40;99.90
9768;DHT22;4923;52.520;13.494;2023-09-08T13:09:47;28.50;99.90
9768;DHT22;4923;52.520;13.494;2023-09-08T13:12:35;28.50;99.90
9768;DHT22;4923;52.520;13.494;2023-09-08T13:15:22;28.50;99.90
9768;DHT22;4923;52.520;13.494;2023-09-08T13:18:09;28.50;99.90
9768;DHT22;4923;52.520;13.494;2023-09-08T13:20:56;28.40;99.90
9768;DHT22;4923;52.520;13.494;2023-09-08T13:23:43;28.50;99.90
9768;DHT22;4923;52.520;13.494;2023-09-08T13:26:31;28.50;99.90
9768;DHT22;4923;52.520;13.494;2023-09-08T13:29:19;28.60;99.90
9768;DHT22;4923;52.520;13.494;2023-09-08T13:32:06;28.60;99.90
9768;DHT22;4923;52.520;13.494;2023-09-08T13:34:52;28.60;99.90
9768;DHT22;4923;52.520;13.494;2023-09-08T13:37:39;28.70;99.90
9768;DHT22;4923;52.520;13.494;2023-09-08T13:40:28;28.70;99.90
9768;DHT22;4923;52.520;13.494;2023-09-08T13:43:15;28.70;99.90
9768;DHT22;4923;52.520;13.494;2023-09-08T13:46:03;28.70;99.90
9768;DHT22;4923;52.520;13.494;2023-09-08T13:48:50;28.70;99.90
9768;DHT22;4923;52.520;13.494;2023-09-08T13:51:37;28.70;99.90
9768;DHT22;4923;52.520;13.494;2023-09-08T13:54:23;28.70;99.90
9768;DHT22;4923;52.520;13.494;2023-09-08T13:57:10;28.70;99.90
9768;DHT22;4923;52.520;13.494;2023-09-08T13:59:57;28.70;99.90
9768;DHT22;4923;52.520;13.494;2023-09-08T14:02:45;28.70;99.90
9768;DHT22;4923;52.520;13.494;2023-09-08T14:05:32;28.70;99.90
9768;DHT22;4923;52.520;13.494;2023-09-08T14:08:19;28.70;99.90
9768;DHT22;4923;52.520;13.494;2023-09-08T14:11:06;28.80;99.90
9768;DHT22;4923;52.520;13.494;2023-09-08T14:13:53;28.70;99.90
9768;DHT22;4923;52.520;13.494;2023-09-08T14:16:40;28.70;99.90
9768;DHT22;4923;52.520;13.494;2023-09-08T14:19:28;28.70;99.90
9768;DHT22;4923;52.520;13.494;2023-09-08T14:22:15;28.70;99.90
9768;DHT22;4923;52.520;13.494;2023-09-08T14:25:02;28.70;99.90
9768;DHT22;4923;52.520;13.494;2023-09-08T14:27:49;28.60;99.90
9768;DHT22;4923;52.520;13.494;2023-09-08T14:30:36;28.60;99.90
9768;DHT22;4923;52.520;13.494;2023-09-08T14:33:23;28.60;99.90
9768;DHT22;4923;52.520;13.494;2023-09-08T14:36:16;28.60;99.90
9768;DHT22;4923;52.520;13.494;2023-09-08T14:39:03;28.60;99.90
9768;DHT22;4923;52.520;13.494;2023-09-08T14:41:51;28.60;99.90
9768;DHT22;4923;52.520;13.494;2023-09-08T14:44:39;28.60;99.90
9768;DHT22;4923;52.520;13.494;2023-09-08T14:47:26;28.60;99.90
9768;DHT22;4923;52.520;13.494;2023-09-08T14:50:13;28.60;99.90
9768;DHT22;4923;52.520;13.494;2023-09-08T14:53:02;28.60;99.90
9768;DHT22;4923;52.520;13.494;2023-09-08T14:55:49;28.50;99.90
9768;DHT22;4923;52.520;13.494;2023-09-08T14:58:36;28.50;99.90
9768;DHT22;4923;52.520;13.494;2023-09-08T15:01:23;28.40;99.90
9768;DHT22;4923;52.520;13.494;2023-09-08T15:04:10;28.40;99.90
9768;DHT22;4923;52.520;13.494;2023-09-08T15:06:57;28.40;99.90
9768;DHT22;4923;52.520;13.494;2023-09-08T15:09:45;28.30;99.90
9768;DHT22;4923;52.520;13.494;2023-09-08T15:12:32;28.30;99.90
9768;DHT22;4923;52.520;13.494;2023-09-08T15:15:19;28.30;99.90
9768;DHT22;4923;52.520;13.494;2023-09-08T15:18:09;28.30;99.90
9768;DHT22;4923;52.520;13.494;2023-09-08T15:20:56;28.30;99.90
9768;DHT22;4923;52.520;13.494;2023-09-08T15:23:43;28.20;99.90
9768;DHT22;4923;52.520;13.494;2023-09-08T15:26:32;28.10;99.90
9768;DHT22;4923;52.520;13.494;2023-09-08T15:29:19;28.00;99.90
9768;DHT22;4923;52.520;13.494;2023-09-08T15:32:06;28.00;99.90
9768;DHT22;4923;52.520;13.494;2023-09-08T15:34:54;28.00;99.90
9768;DHT22;4923;52.520;13.494;2023-09-08T15:37:41;28.00;99.90
9768;DHT22;4923;52.520;13.494;2023-09-08T15:40:27;27.90;99.90
9768;DHT22;4923;52.520;13.494;2023-09-08T15:43:16;27.90;99.90
9768;DHT22;4923;52.520;13.494;2023-09-08T15:46:03;27.80;99.90
9768;DHT22;4923;52.520;13.494;2023-09-08T15:48:50;27.80;99.90
9768;DHT22;4923;52.520;13.494;2023-09-08T15:51:36;27.70;99.90
9768;DHT22;4923;52.520;13.494;2023-09-08T15:54:23;27.70;99.90
9768;DHT22;4923;52.520;13.494;2023-09-08T15:57:10;27.60;99.90
9768;DHT22;4923;52.520;13.494;2023-09-08T15:59:58;27.50;99.90
9768;DHT22;4923;52.520;13.494;2023-09-08T16:02:45;27.50;99.90
9768;DHT22;4923;52.520;13.494;2023-09-08T16:05:32;27.40;99.90
9768;DHT22;4923;52.520;13.494;2023-09-08T16:08:19;27.30;99.90
9768;DHT22;4923;52.520;13.494;2023-09-08T16:11:06;27.30;99.90
9768;DHT22;4923;52.520;13.494;2023-09-08T16:13:53;27.20;99.90
9768;DHT22;4923;52.520;13.494;2023-09-08T16:16:41;27.10;99.90
9768;DHT22;4923;52.520;13.494;2023-09-08T16:19:29;27.00;99.90
9768;DHT22;4923;52.520;13.494;2023-09-08T16:22:16;26.90;99.90
9768;DHT22;4923;52.520;13.494;2023-09-08T16:25:03;26.90;99.90
9768;DHT22;4923;52.520;13.494;2023-09-08T16:27:50;26.90;99.90
9768;DHT22;4923;52.520;13.494;2023-09-08T16:30:37;26.80;99.90
9768;DHT22;4923;52.520;13.494;2023-09-08T16:33:25;26.70;99.90
9768;DHT22;4923;52.520;13.494;2023-09-08T16:36:12;26.70;99.90
9768;DHT22;4923;52.520;13.494;2023-09-08T16:38:59;26.60;99.90
9768;DHT22;4923;52.520;13.494;2023-09-08T16:41:46;26.50;99.90
9768;DHT22;4923;52.520;13.494;2023-09-08T16:44:32;26.40;99.90
9768;DHT22;4923;52.520;13.494;2023-09-08T16:47:19;26.30;99.90
9768;DHT22;4923;52.520;13.494;2023-09-08T16:50:10;26.30;99.90
9768;DHT22;4923;52.520;13.494;2023-09-08T16:52:57;26.10;99.90
9768;DHT22;4923;52.520;13.494;2023-09-08T16:55:43;26.00;99.90
9768;DHT22;4923;52.520;13.494;2023-09-08T16:58:30;25.90;99.90
9768;DHT22;4923;52.520;13.494;2023-09-08T17:01:17;25.80;99.90
9768;DHT22;4923;52.520;13.494;2023-09-08T17:04:04;25.70;99.90
9768;DHT22;4923;52.520;13.494;2023-09-08T17:06:56;25.60;99.90
9768;DHT22;4923;52.520;13.494;2023-09-08T17:09:43;25.50;99.90
9768;DHT22;4923;52.520;13.494;2023-09-08T17:12:30;25.40;99.90
9768;DHT22;4923;52.520;13.494;2023-09-08T17:15:17;25.30;99.90
9768;DHT22;4923;52.520;13.494;2023-09-08T17:18:05;25.20;99.90
9768;DHT22;4923;52.520;13.494;2023-09-08T17:20:52;25.10;99.90
9768;DHT22;4923;52.520;13.494;2023-09-08T17:23:40;25.00;99.90
9768;DHT22;4923;52.520;13.494;2023-09-08T17:26:27;24.90;99.90
9768;DHT22;4923;52.520;13.494;2023-09-08T17:29:14;24.80;99.90
9768;DHT22;4923;52.520;13.494;2023-09-08T17:32:01;24.70;99.90
9768;DHT22;4923;52.520;13.494;2023-09-08T17:34:48;24.60;99.90
9768;DHT22;4923;52.520;13.494;2023-09-08T17:37:35;24.40;99.90
9768;DHT22;4923;52.520;13.494;2023-09-08T17:40:24;24.20;99.90
9768;DHT22;4923;52.520;13.494;2023-09-08T17:43:11;24.10;99.90
9768;DHT22;4923;52.520;13.494;2023-09-08T17:45:59;24.00;99.90
9768;DHT22;4923;52.520;13.494;2023-09-08T17:48:47;23.90;99.90
9768;DHT22;4923;52.520;13.494;2023-09-08T17:51:34;23.70;99.90
9768;DHT22;4923;52.520;13.494;2023-09-08T17:54:21;23.60;99.90